createdAt,value
2022-09-30T00:02:56.734Z,93.42
2022-09-30T00:07:58.514Z,93.25
2022-09-30T00:13:00.236Z,93.08
2022-09-30T00:18:01.895Z,93.62
2022-09-30T00:23:04.281Z,94.00
2022-09-30T00:28:07.976Z,94.05
2022-09-30T00:33:10.104Z,93.68
2022-09-30T00:38:11.879Z,93.98
2022-09-30T00:43:15.558Z,94.27
2022-09-30T00:48:38.911Z,93.85
2022-09-30T00:54:03.185Z,93.34
2022-09-30T00:59:10.405Z,93.57
2022-09-30T01:04:20.662Z,93.76
2022-09-30T01:09:22.488Z,93.58
2022-09-30T01:14:27.611Z,93.34
2022-09-30T01:19:44.106Z,93.09
2022-09-30T01:25:19.069Z,93.01
2022-09-30T01:30:36.285Z,92.67
2022-09-30T01:35:51.509Z,92.53
2022-09-30T01:41:11.501Z,92.26
2022-09-30T01:46:44.460Z,91.79
2022-09-30T01:52:05.658Z,91.86
2022-09-30T01:57:41.845Z,92.01
2022-09-30T02:02:49.135Z,91.64
2022-09-30T02:08:10.114Z,91.17
2022-09-30T02:13:17.971Z,91.66
2022-09-30T02:18:35.459Z,91.24
2022-09-30T02:23:42.510Z,91.70
2022-09-30T02:28:59.211Z,92.46
2022-09-30T02:34:07.504Z,92.58
2022-09-30T02:39:22.637Z,92.27
2022-09-30T02:44:24.917Z,93.11
2022-09-30T02:49:33.630Z,93.46
2022-09-30T02:54:49.890Z,93.75
2022-09-30T02:59:53.070Z,93.48
2022-09-30T03:04:54.727Z,93.27
2022-09-30T03:09:59.750Z,93.58
2022-09-30T03:15:13.007Z,93.43
2022-09-30T03:20:34.906Z,92.73
2022-09-30T03:26:04.867Z,93.29
2022-09-30T03:31:12.983Z,93.70
2022-09-30T03:36:32.095Z,94.27
2022-09-30T03:41:47.881Z,94.18
2022-09-30T03:46:54.319Z,94.41
2022-09-30T03:51:58.889Z,94.85
2022-09-30T03:57:05.125Z,94.55
2022-09-30T04:02:10.421Z,94.48
2022-09-30T04:07:12.670Z,94.60
2022-09-30T04:12:14.489Z,95.12
2022-09-30T04:17:16.381Z,95.22
2022-09-30T04:22:18.111Z,95.27
2022-09-30T04:27:19.835Z,95.16
2022-09-30T04:32:22.866Z,94.98
2022-09-30T04:37:25.743Z,94.97
2022-09-30T04:42:27.414Z,95.16
2022-09-30T04:47:30.114Z,94.86
2022-09-30T04:52:31.857Z,94.58
2022-09-30T04:57:33.582Z,94.25
2022-09-30T05:02:35.665Z,94.00
2022-09-30T05:07:37.732Z,93.81
2022-09-30T05:12:42.714Z,93.63
2022-09-30T05:17:44.519Z,93.35
2022-09-30T05:22:46.679Z,92.75
2022-09-30T05:27:49.931Z,92.70
2022-09-30T05:32:51.569Z,94.75
2022-09-30T05:37:53.526Z,93.19
2022-09-30T05:42:57.509Z,92.59
2022-09-30T05:48:00.148Z,92.88
2022-09-30T05:53:01.836Z,93.02
2022-09-30T05:58:03.490Z,92.93
2022-09-30T06:03:05.191Z,92.93
2022-09-30T06:08:07.170Z,93.25
2022-09-30T06:13:09.388Z,92.80
2022-09-30T06:18:17.014Z,92.86
2022-09-30T06:23:20.301Z,92.90
2022-09-30T06:28:22.937Z,93.07
2022-09-30T06:33:24.683Z,93.44
2022-09-30T06:38:28.663Z,93.99
2022-09-30T06:43:32.217Z,93.91
2022-09-30T06:48:43.326Z,93.68
2022-09-30T06:53:45.055Z,94.27
2022-09-30T06:58:46.905Z,94.26
2022-09-30T07:03:54.668Z,94.52
2022-09-30T07:08:56.847Z,95.42
2022-09-30T07:13:58.803Z,95.22
2022-09-30T07:19:01.910Z,95.34
2022-09-30T07:24:03.774Z,95.18
2022-09-30T07:29:07.221Z,95.20
2022-09-30T07:34:09.500Z,95.53
2022-09-30T07:39:11.322Z,95.95
2022-09-30T07:44:14.923Z,96.67
2022-09-30T07:49:25.481Z,96.53
2022-09-30T07:54:30.572Z,96.61
2022-09-30T07:59:35.463Z,97.09
2022-09-30T08:04:41.555Z,97.11
2022-09-30T08:09:45.416Z,97.52
2022-09-30T08:14:47.231Z,97.57
2022-09-30T08:19:49.192Z,97.93
2022-09-30T08:24:50.830Z,98.44
2022-09-30T08:29:55.531Z,98.93
2022-09-30T08:34:57.764Z,98.35
2022-09-30T08:39:59.601Z,98.17
2022-09-30T08:45:36.929Z,98.33
2022-09-30T08:51:07.952Z,98.44
2022-09-30T08:56:17.704Z,97.43
2022-09-30T09:01:44.307Z,97.37
2022-09-30T09:07:40.350Z,97.83
2022-09-30T09:12:56.673Z,97.50
2022-09-30T09:18:40.248Z,97.15
2022-09-30T09:23:42.539Z,97.25
2022-09-30T09:29:21.703Z,96.76
2022-09-30T09:34:25.387Z,96.35
2022-09-30T09:39:52.542Z,96.09
2022-09-30T09:45:29.102Z,95.54
2022-09-30T09:51:03.347Z,95.28
2022-09-30T09:56:18.559Z,95.30
2022-09-30T10:01:32.808Z,94.41
2022-09-30T10:06:50.069Z,94.78
2022-09-30T10:12:18.629Z,94.20
2022-09-30T10:17:35.647Z,92.65
2022-09-30T10:22:37.427Z,92.14
2022-09-30T10:27:54.846Z,91.79
2022-09-30T10:32:56.737Z,90.82
2022-09-30T10:38:00.506Z,90.62
2022-09-30T10:43:02.479Z,88.42
2022-09-30T10:48:07.922Z,87.79
2022-09-30T10:53:21.218Z,83.35
2022-09-30T10:58:29.273Z,83.72
2022-09-30T11:03:37.898Z,83.55
2022-09-30T11:08:48.743Z,82.81
2022-09-30T11:14:12.438Z,82.32
2022-09-30T11:19:49.476Z,81.85
2022-09-30T11:24:54.527Z,82.09
2022-09-30T11:30:19.380Z,81.51
2022-09-30T11:35:43.455Z,80.71
2022-09-30T11:40:45.147Z,79.61
2022-09-30T11:46:07.964Z,78.92
2022-09-30T11:51:36.010Z,77.16
2022-09-30T11:56:53.946Z,77.58
2022-09-30T12:02:01.965Z,79.97
2022-09-30T12:07:20.056Z,78.70
2022-09-30T12:12:21.885Z,78.47
2022-09-30T12:17:28.159Z,75.66
2022-09-30T12:22:40.102Z,76.07
2022-09-30T12:28:40.274Z,75.17
2022-09-30T12:34:03.884Z,75.09
2022-09-30T12:39:20.756Z,73.71
2022-09-30T12:44:51.329Z,73.08
2022-09-30T12:49:58.044Z,73.10
2022-09-30T12:55:09.998Z,73.19
2022-09-30T13:00:24.442Z,70.99
2022-09-30T13:05:32.325Z,71.03
2022-09-30T13:10:44.374Z,71.39
2022-09-30T13:15:46.694Z,73.73
2022-09-30T13:21:10.662Z,70.94
2022-09-30T13:26:27.928Z,68.02
2022-09-30T13:31:32.395Z,68.11
2022-09-30T13:36:59.078Z,66.89
2022-09-30T13:42:00.690Z,68.60
2022-09-30T13:47:15.001Z,67.07
2022-09-30T13:52:33.945Z,67.43
2022-09-30T13:57:51.943Z,66.53
2022-09-30T14:03:06.576Z,65.69
2022-09-30T14:08:39.015Z,67.14
2022-09-30T14:13:59.296Z,68.04
2022-09-30T14:19:16.320Z,67.93
2022-09-30T14:24:35.146Z,68.60
2022-09-30T14:29:57.670Z,69.69
2022-09-30T14:35:06.767Z,70.08
2022-09-30T14:40:12.324Z,69.25
2022-09-30T14:45:35.467Z,69.85
2022-09-30T14:50:50.631Z,70.33
2022-09-30T14:55:52.671Z,70.45
2022-09-30T15:01:03.144Z,70.56
2022-09-30T15:06:15.999Z,70.71
2022-09-30T15:11:20.313Z,71.57
2022-09-30T15:16:24.323Z,71.01
2022-09-30T15:21:30.574Z,71.37
2022-09-30T15:26:34.584Z,71.57
2022-09-30T15:31:43.965Z,71.06
2022-09-30T15:36:48.340Z,71.90
2022-09-30T15:41:51.811Z,74.20
2022-09-30T15:47:07.101Z,75.98
2022-09-30T15:52:23.944Z,77.07
2022-09-30T15:57:45.852Z,76.96
2022-09-30T16:02:47.653Z,76.94
2022-09-30T16:07:49.484Z,76.67
2022-09-30T16:17:53.245Z,76.50
2022-09-30T16:22:55.887Z,76.39
2022-09-30T16:28:14.853Z,76.29
2022-09-30T16:33:17.304Z,76.12
2022-09-30T16:38:19.951Z,76.76
2022-09-30T16:43:22.044Z,76.84
2022-09-30T16:48:26.088Z,76.92
2022-09-30T16:53:27.888Z,76.64
2022-09-30T16:58:31.372Z,77.30
2022-09-30T17:03:33.982Z,78.93
2022-09-30T17:08:36.165Z,80.85
2022-09-30T17:13:38.022Z,82.08
2022-09-30T17:18:40.237Z,82.27
2022-09-30T17:23:41.916Z,83.08
2022-09-30T17:28:44.997Z,83.93
2022-09-30T17:33:46.692Z,84.90
2022-09-30T17:38:53.679Z,85.30
2022-09-30T17:43:55.775Z,86.00
2022-09-30T17:48:57.518Z,86.48
2022-09-30T17:54:01.789Z,87.39
2022-09-30T17:59:03.697Z,87.76
2022-09-30T18:04:05.378Z,88.58
2022-09-30T18:09:07.210Z,88.39
2022-09-30T18:14:10.888Z,88.66
2022-09-30T18:24:14.375Z,88.74
2022-09-30T18:29:16.144Z,89.09
2022-09-30T18:34:19.039Z,89.88
2022-09-30T18:39:21.449Z,90.29
2022-09-30T18:44:25.109Z,90.80
2022-09-30T18:49:26.829Z,90.83
2022-09-30T18:54:29.878Z,90.22
2022-09-30T18:59:31.604Z,90.63
2022-09-30T19:04:33.310Z,90.47
2022-09-30T19:09:35.063Z,90.98
2022-09-30T19:14:37.391Z,91.87
2022-09-30T19:19:41.192Z,92.37
2022-09-30T19:24:42.847Z,92.63
2022-09-30T19:29:44.651Z,92.55
2022-09-30T19:34:52.255Z,92.24
2022-09-30T19:40:00.304Z,91.81
2022-09-30T19:45:07.098Z,91.25
2022-09-30T19:50:09.159Z,91.21
2022-09-30T19:55:16.262Z,91.59
2022-09-30T20:00:18.826Z,92.03
2022-09-30T20:05:20.616Z,92.39
2022-09-30T20:10:23.997Z,92.71
2022-09-30T20:15:46.361Z,92.92
2022-09-30T20:20:48.370Z,93.01
2022-09-30T20:25:53.915Z,92.85
2022-09-30T20:30:55.745Z,92.51
2022-09-30T20:36:00.115Z,92.08
2022-09-30T20:41:03.560Z,92.10
2022-09-30T20:46:08.263Z,92.59
2022-09-30T20:51:12.297Z,92.80
2022-09-30T20:56:15.137Z,92.65
2022-09-30T21:01:19.254Z,92.32
2022-09-30T21:06:25.822Z,92.45
2022-09-30T21:11:27.473Z,92.74
2022-09-30T21:16:29.670Z,92.34
2022-09-30T21:21:31.795Z,92.20
2022-09-30T21:26:33.730Z,92.50
2022-09-30T21:31:37.945Z,93.31
2022-09-30T21:36:40.162Z,93.38
2022-09-30T21:41:42.746Z,93.10
2022-09-30T21:46:48.549Z,92.92
2022-09-30T21:51:52.907Z,92.38
2022-09-30T21:56:54.637Z,92.42
2022-09-30T22:01:59.444Z,93.48
2022-09-30T22:07:01.206Z,93.52
2022-09-30T22:12:09.037Z,93.36
2022-09-30T22:17:10.710Z,93.42
2022-09-30T22:22:12.385Z,93.64
2022-09-30T22:27:14.647Z,93.19
2022-09-30T22:32:16.425Z,92.94
2022-09-30T22:37:37.057Z,92.71
2022-09-30T22:42:39.217Z,93.57
2022-09-30T22:47:41.497Z,93.13
2022-09-30T22:52:43.126Z,92.17
2022-09-30T22:57:44.923Z,91.62
2022-09-30T23:02:48.291Z,92.10
2022-09-30T23:07:52.819Z,92.38
2022-09-30T23:12:54.475Z,92.35
2022-09-30T23:17:56.527Z,91.70
2022-09-30T23:22:58.235Z,91.68
2022-09-30T23:28:00.210Z,91.41
2022-09-30T23:33:01.931Z,91.09
2022-09-30T23:38:03.665Z,91.30
2022-09-30T23:43:05.309Z,91.29
2022-09-30T23:48:07.266Z,91.30
2022-09-30T23:53:09.321Z,90.91
2022-09-30T23:58:10.978Z,90.58
